createdAt,value
2019-02-24T00:00:16.679Z,25.97
2019-02-24T00:02:46.504Z,24.77
2019-02-24T00:05:16.341Z,27.07
2019-02-24T00:07:46.852Z,29.07
2019-02-24T00:10:16.647Z,27.67
2019-02-24T00:12:46.500Z,30.50
2019-02-24T00:15:16.309Z,28.40
2019-02-24T00:17:46.354Z,27.37
2019-02-24T00:20:15.851Z,27.97
2019-02-24T00:22:46.155Z,26.83
2019-02-24T00:25:15.795Z,30.10
2019-02-24T00:27:45.631Z,27.47
2019-02-24T00:30:15.692Z,30.93
2019-02-24T00:32:46.185Z,27.60
2019-02-24T00:35:15.797Z,26.33
2019-02-24T00:37:45.642Z,26.67
2019-02-24T00:40:15.752Z,29.20
2019-02-24T00:42:45.918Z,25.57
2019-02-24T00:45:15.631Z,28.07
2019-02-24T00:47:46.072Z,27.03
2019-02-24T00:50:15.960Z,25.77
2019-02-24T00:52:46.246Z,29.17
2019-02-24T00:55:15.946Z,25.87
2019-02-24T00:57:45.699Z,27.33
2019-02-24T01:00:16.162Z,26.43
2019-02-24T01:02:48.021Z,24.73
2019-02-24T01:05:17.621Z,25.70
2019-02-24T01:07:47.667Z,22.40
2019-02-24T01:10:17.555Z,26.07
2019-02-24T01:12:47.961Z,27.63
2019-02-24T01:15:17.622Z,22.50
2019-02-24T01:17:47.862Z,23.23
2019-02-24T01:20:17.711Z,26.17
2019-02-24T01:22:48.011Z,22.27
2019-02-24T01:25:17.793Z,24.80
2019-02-24T01:27:47.380Z,28.60
2019-02-24T01:30:17.411Z,24.63
2019-02-24T01:32:47.002Z,26.27
2019-02-24T01:35:16.649Z,24.43
2019-02-24T01:37:46.330Z,25.53
2019-02-24T01:40:15.931Z,26.50
2019-02-24T01:42:45.616Z,27.17
2019-02-24T01:45:15.341Z,26.13
2019-02-24T01:47:44.933Z,26.93
2019-02-24T01:50:14.770Z,25.30
2019-02-24T01:52:44.377Z,23.03
2019-02-24T01:55:14.142Z,25.33
2019-02-24T01:57:43.701Z,24.90
2019-02-24T02:00:13.472Z,28.77
2019-02-24T02:02:43.264Z,27.40
2019-02-24T02:05:13.047Z,24.70
2019-02-24T02:07:42.549Z,27.50
2019-02-24T02:10:12.573Z,26.70
2019-02-24T02:12:42.163Z,27.97
2019-02-24T02:15:13.458Z,27.37
2019-02-24T02:17:43.402Z,24.13
2019-02-24T02:20:13.301Z,25.60
2019-02-24T02:22:42.887Z,26.33
2019-02-24T02:25:12.555Z,26.20
2019-02-24T02:27:42.141Z,30.00
2019-02-24T02:30:12.626Z,27.30
2019-02-24T02:32:43.344Z,27.50
2019-02-24T02:35:12.836Z,26.97
2019-02-24T02:37:42.508Z,28.30
2019-02-24T02:40:12.204Z,25.40
2019-02-24T02:42:42.044Z,24.83
2019-02-24T02:45:11.713Z,27.20
2019-02-24T02:47:41.570Z,27.97
2019-02-24T02:50:11.583Z,26.03
2019-02-24T02:52:41.300Z,27.83
2019-02-24T02:55:10.944Z,36.33
2019-02-24T02:57:40.779Z,24.07
2019-02-24T03:00:35.118Z,24.20
2019-02-24T03:03:05.076Z,22.97
2019-02-24T03:05:34.937Z,25.40
2019-02-24T03:08:12.003Z,26.40
2019-02-24T03:10:41.644Z,26.63
2019-02-24T03:13:11.478Z,26.83
2019-02-24T03:15:41.151Z,29.53
2019-02-24T03:18:11.175Z,24.40
2019-02-24T03:20:40.885Z,27.53
2019-02-24T03:23:10.588Z,26.93
2019-02-24T03:25:40.389Z,27.20
2019-02-24T03:28:10.433Z,24.20
2019-02-24T03:30:40.291Z,25.10
2019-02-24T03:33:09.859Z,24.53
2019-02-24T03:35:39.715Z,26.13
2019-02-24T03:38:10.341Z,25.83
2019-02-24T03:40:40.109Z,26.33
2019-02-24T03:43:09.963Z,23.93
2019-02-24T03:45:39.512Z,26.87
2019-02-24T03:48:09.116Z,26.07
2019-02-24T03:50:38.685Z,25.47
2019-02-24T03:53:08.511Z,28.50
2019-02-24T03:55:38.264Z,27.60
2019-02-24T03:58:07.886Z,28.00
2019-02-24T04:00:37.540Z,26.07
2019-02-24T04:03:07.250Z,25.27
2019-02-24T04:05:36.801Z,23.83
2019-02-24T04:08:06.662Z,24.87
2019-02-24T04:10:36.500Z,24.43
2019-02-24T04:13:06.104Z,27.53
2019-02-24T04:15:35.785Z,28.00
2019-02-24T04:18:05.496Z,27.87
2019-02-24T04:20:35.225Z,26.10
2019-02-24T04:23:06.514Z,26.10
2019-02-24T04:25:36.167Z,27.27
2019-02-24T04:28:05.915Z,28.97
2019-02-24T04:30:35.599Z,26.23
2019-02-24T04:33:05.684Z,26.37
2019-02-24T04:35:35.576Z,25.03
2019-02-24T04:38:05.211Z,25.30
2019-02-24T04:40:34.920Z,24.17
2019-02-24T04:43:04.503Z,24.83
2019-02-24T04:45:34.125Z,26.43
2019-02-24T04:48:03.964Z,25.87
2019-02-24T04:50:33.805Z,22.97
2019-02-24T04:53:03.530Z,28.60
2019-02-24T04:55:33.362Z,25.87
2019-02-24T04:58:02.955Z,26.70
2019-02-24T05:00:32.590Z,28.43
2019-02-24T05:03:02.214Z,31.07
2019-02-24T05:05:31.797Z,26.77
2019-02-24T05:08:01.593Z,24.67
2019-02-24T05:10:31.485Z,28.30
2019-02-24T05:13:01.084Z,26.23
2019-02-24T05:15:30.847Z,25.10
2019-02-24T05:18:00.558Z,30.70
2019-02-24T05:20:30.225Z,27.67
2019-02-24T05:22:59.907Z,26.93
2019-02-24T05:25:29.554Z,27.17
2019-02-24T05:27:59.341Z,26.50
2019-02-24T05:30:29.075Z,26.93
2019-02-24T05:32:58.771Z,24.17
2019-02-24T05:35:28.326Z,24.43
2019-02-24T05:37:57.859Z,26.53
2019-02-24T05:40:27.344Z,25.07
2019-02-24T05:42:57.159Z,23.60
2019-02-24T05:45:26.725Z,27.27
2019-02-24T05:47:56.366Z,28.53
2019-02-24T05:50:25.988Z,25.40
2019-02-24T05:52:55.485Z,27.00
2019-02-24T05:55:25.198Z,26.23
2019-02-24T05:57:54.879Z,27.33
2019-02-24T06:00:24.494Z,31.60
2019-02-24T06:02:54.157Z,29.90
2019-02-24T06:05:23.669Z,30.07
2019-02-24T06:07:53.314Z,25.73
2019-02-24T06:10:22.908Z,25.23
2019-02-24T06:12:52.661Z,23.80
2019-02-24T06:15:22.218Z,26.97
2019-02-24T06:17:51.748Z,25.90
2019-02-24T06:20:21.304Z,24.97
2019-02-24T06:22:50.970Z,26.37
2019-02-24T06:25:21.067Z,24.27
2019-02-24T06:27:50.719Z,27.03
2019-02-24T06:30:20.339Z,25.27
2019-02-24T06:32:49.966Z,25.73
2019-02-24T06:35:19.568Z,27.87
2019-02-24T06:37:49.197Z,24.30
2019-02-24T06:40:19.063Z,25.87
2019-02-24T06:42:48.664Z,24.87
2019-02-24T06:45:18.411Z,26.80
2019-02-24T06:47:48.062Z,25.40
2019-02-24T06:50:17.848Z,29.77
2019-02-24T06:52:47.459Z,27.47
2019-02-24T06:55:17.254Z,26.00
2019-02-24T06:57:46.904Z,26.67
2019-02-24T07:00:16.934Z,27.47
2019-02-24T07:02:46.474Z,26.60
2019-02-24T07:05:16.231Z,23.43
2019-02-24T07:07:45.899Z,24.47
2019-02-24T07:10:15.949Z,29.73
2019-02-24T07:12:45.660Z,26.43
2019-02-24T07:15:15.420Z,26.97
2019-02-24T07:17:45.082Z,26.30
2019-02-24T07:20:15.677Z,25.93
2019-02-24T07:22:45.527Z,23.83
2019-02-24T07:25:16.430Z,24.40
2019-02-24T07:27:46.024Z,27.90
2019-02-24T07:30:23.141Z,24.93
2019-02-24T07:32:47.442Z,27.13
2019-02-24T07:35:17.134Z,28.77
2019-02-24T07:37:46.748Z,25.10
2019-02-24T07:40:16.640Z,24.60
2019-02-24T07:42:46.318Z,24.57
2019-02-24T07:45:15.853Z,25.53
2019-02-24T07:47:45.789Z,24.47
2019-02-24T07:50:15.400Z,28.97
2019-02-24T07:52:45.283Z,25.93
2019-02-24T07:55:14.776Z,24.50
2019-02-24T07:57:44.818Z,25.47
2019-02-24T08:00:14.526Z,24.73
2019-02-24T08:02:44.265Z,25.80
2019-02-24T08:05:14.039Z,25.90
2019-02-24T08:07:43.738Z,23.57
2019-02-24T08:10:13.488Z,25.23
2019-02-24T08:12:43.044Z,25.23
2019-02-24T08:15:12.846Z,25.07
2019-02-24T08:17:42.442Z,26.53
2019-02-24T08:20:12.143Z,25.80
2019-02-24T08:22:41.832Z,25.80
2019-02-24T08:25:11.658Z,24.50
2019-02-24T08:27:41.322Z,27.10
2019-02-24T08:30:13.143Z,23.87
2019-02-24T08:32:42.728Z,26.47
2019-02-24T08:35:12.561Z,24.13
2019-02-24T08:37:42.227Z,26.30
2019-02-24T08:40:11.957Z,25.87
2019-02-24T08:42:41.580Z,28.07
2019-02-24T08:45:11.596Z,25.23
2019-02-24T08:47:41.172Z,24.17
2019-02-24T08:50:11.983Z,24.33
2019-02-24T08:52:41.955Z,24.10
2019-02-24T08:55:11.681Z,24.77
2019-02-24T08:57:41.330Z,24.53
2019-02-24T09:00:14.995Z,24.13
2019-02-24T09:02:44.736Z,23.53
2019-02-24T09:05:14.342Z,23.20
2019-02-24T09:07:43.887Z,25.00
2019-02-24T09:10:13.678Z,24.20
2019-02-24T09:12:43.763Z,23.43
2019-02-24T09:15:14.989Z,22.23
2019-02-24T09:17:44.788Z,23.37
2019-02-24T09:20:15.399Z,21.70
2019-02-24T09:22:45.634Z,20.07
2019-02-24T09:25:15.491Z,21.03
2019-02-24T09:27:45.013Z,20.13
2019-02-24T09:30:15.235Z,23.37
2019-02-24T09:32:45.032Z,21.83
2019-02-24T09:35:14.720Z,20.07
2019-02-24T09:38:03.667Z,20.67
2019-02-24T09:40:33.668Z,21.50
2019-02-24T09:43:03.312Z,19.40
2019-02-24T09:45:32.974Z,21.20
2019-02-24T09:48:02.941Z,20.10
2019-02-24T09:50:32.400Z,20.90
2019-02-24T09:53:02.345Z,19.97
2019-02-24T09:55:31.920Z,19.17
2019-02-24T09:58:01.631Z,19.23
2019-02-24T10:00:31.329Z,20.17
2019-02-24T10:03:00.995Z,26.90
2019-02-24T10:05:31.192Z,20.27
2019-02-24T10:08:00.892Z,20.27
2019-02-24T10:10:30.623Z,23.77
2019-02-24T10:13:00.354Z,22.53
2019-02-24T10:15:30.355Z,22.40
2019-02-24T10:17:59.988Z,22.40
2019-02-24T10:20:30.001Z,21.40
2019-02-24T10:22:59.720Z,19.60
2019-02-24T10:25:29.528Z,18.70
2019-02-24T10:27:59.296Z,20.37
2019-02-24T10:30:29.392Z,18.47
2019-02-24T10:32:59.201Z,19.13
2019-02-24T10:35:29.503Z,20.10
2019-02-24T10:37:59.537Z,21.13
2019-02-24T10:40:29.291Z,19.83
2019-02-24T10:42:59.367Z,17.37
2019-02-24T10:45:30.753Z,18.73
2019-02-24T10:48:00.790Z,16.03
2019-02-24T10:50:31.684Z,16.60
2019-02-24T10:53:01.512Z,16.37
2019-02-24T10:55:31.605Z,17.53
2019-02-24T10:58:01.650Z,17.93
2019-02-24T11:00:31.960Z,16.90
2019-02-24T11:03:01.812Z,13.80
2019-02-24T11:05:31.705Z,15.07
2019-02-24T11:08:01.705Z,15.97
2019-02-24T11:10:31.498Z,18.47
2019-02-24T11:13:01.125Z,14.07
2019-02-24T11:15:32.964Z,17.10
2019-02-24T11:18:02.970Z,13.57
2019-02-24T11:20:32.836Z,13.83
2019-02-24T11:23:02.866Z,12.53
2019-02-24T11:25:32.668Z,15.50
2019-02-24T11:28:02.891Z,14.50
2019-02-24T11:30:32.711Z,11.83
2019-02-24T11:33:02.652Z,15.43
2019-02-24T11:35:32.997Z,13.43
2019-02-24T11:38:02.908Z,12.43
2019-02-24T11:40:32.900Z,12.43
2019-02-24T11:43:02.731Z,13.37
2019-02-24T11:45:32.678Z,13.33
2019-02-24T11:48:02.451Z,11.90
2019-02-24T11:50:32.085Z,10.83
2019-02-24T11:53:01.939Z,12.10
2019-02-24T11:55:31.736Z,13.70
2019-02-24T11:58:01.461Z,12.27
2019-02-24T12:00:31.080Z,13.27
2019-02-24T12:03:00.921Z,12.27
2019-02-24T12:05:30.613Z,12.53
2019-02-24T12:08:00.271Z,13.13
2019-02-24T12:10:29.850Z,15.57
2019-02-24T12:12:59.605Z,13.93
2019-02-24T12:15:29.288Z,12.27
2019-02-24T12:17:59.040Z,13.33
2019-02-24T12:20:28.622Z,13.07
2019-02-24T12:22:58.540Z,15.37
2019-02-24T12:25:28.131Z,12.50
2019-02-24T12:27:57.796Z,14.10
2019-02-24T12:30:27.530Z,13.30
2019-02-24T12:32:57.497Z,14.20
2019-02-24T12:35:27.131Z,14.40
2019-02-24T12:37:56.888Z,12.97
2019-02-24T12:40:26.518Z,12.93
2019-02-24T12:42:56.098Z,15.00
2019-02-24T12:45:25.732Z,11.20
2019-02-24T12:47:55.497Z,14.17
2019-02-24T12:50:25.151Z,11.77
2019-02-24T12:52:54.831Z,13.80
2019-02-24T12:55:24.512Z,14.73
2019-02-24T12:57:54.073Z,10.73
2019-02-24T13:00:26.432Z,14.87
2019-02-24T13:02:56.156Z,12.63
2019-02-24T13:05:25.907Z,11.97
2019-02-24T13:07:55.487Z,11.23
2019-02-24T13:10:25.263Z,11.13
2019-02-24T13:12:54.904Z,12.30
2019-02-24T13:15:24.504Z,11.77
2019-02-24T13:17:54.424Z,10.03
2019-02-24T13:20:24.125Z,10.43
2019-02-24T13:22:53.793Z,10.00
2019-02-24T13:25:23.833Z,13.97
2019-02-24T13:27:53.785Z,9.40
2019-02-24T13:30:23.511Z,11.73
2019-02-24T13:32:53.316Z,9.33
2019-02-24T13:35:22.865Z,11.97
2019-02-24T13:37:52.611Z,10.17
2019-02-24T13:40:22.222Z,12.33
2019-02-24T13:42:52.034Z,11.83
2019-02-24T13:45:23.138Z,11.93
2019-02-24T13:47:52.838Z,10.17
2019-02-24T13:50:22.499Z,12.47
2019-02-24T13:52:52.057Z,11.90
2019-02-24T13:55:21.783Z,11.63
2019-02-24T13:57:51.540Z,11.43
2019-02-24T14:00:22.355Z,11.37
2019-02-24T14:02:52.105Z,13.00
2019-02-24T14:05:22.218Z,10.97
2019-02-24T14:07:52.020Z,11.97
2019-02-24T14:10:21.626Z,13.23
2019-02-24T14:12:51.448Z,9.57
2019-02-24T14:15:21.162Z,10.47
2019-02-24T14:17:50.904Z,11.43
2019-02-24T14:20:21.003Z,10.93
2019-02-24T14:22:50.701Z,12.67
2019-02-24T14:25:20.456Z,10.50
2019-02-24T14:27:50.139Z,8.53
2019-02-24T14:30:20.354Z,10.20
2019-02-24T14:32:50.608Z,9.77
2019-02-24T14:35:27.539Z,10.97
2019-02-24T14:37:57.334Z,9.77
2019-02-24T14:40:26.964Z,10.87
2019-02-24T14:42:56.721Z,9.87
2019-02-24T14:45:26.447Z,9.43
2019-02-24T14:47:56.235Z,11.17
2019-02-24T14:50:25.753Z,10.07
2019-02-24T14:52:55.544Z,9.63
2019-02-24T14:55:25.347Z,9.83
2019-02-24T14:57:55.143Z,11.60
2019-02-24T15:00:25.260Z,10.63
2019-02-24T15:02:54.890Z,10.23
2019-02-24T15:05:24.550Z,12.90
2019-02-24T15:07:54.380Z,13.23
2019-02-24T15:10:26.274Z,10.53
2019-02-24T15:12:56.080Z,10.90
2019-02-24T15:15:33.523Z,10.63
2019-02-24T15:18:03.369Z,10.17
2019-02-24T15:20:33.075Z,11.17
2019-02-24T15:23:02.591Z,9.37
2019-02-24T15:25:32.365Z,10.50
2019-02-24T15:28:02.391Z,11.00
2019-02-24T15:30:34.640Z,10.83
2019-02-24T15:33:04.497Z,8.83
2019-02-24T15:35:34.206Z,10.07
2019-02-24T15:38:03.909Z,9.47
2019-02-24T15:40:33.694Z,8.90
2019-02-24T15:43:03.440Z,9.33
2019-02-24T15:45:33.266Z,9.23
2019-02-24T15:48:03.857Z,8.17
2019-02-24T15:50:33.519Z,11.03
2019-02-24T15:53:05.130Z,8.37
2019-02-24T15:55:34.899Z,8.47
2019-02-24T15:58:04.830Z,9.43
2019-02-24T16:00:34.855Z,9.70
2019-02-24T16:03:04.519Z,8.30
2019-02-24T16:05:34.182Z,8.17
2019-02-24T16:08:03.789Z,8.20
2019-02-24T16:10:33.369Z,8.77
2019-02-24T16:13:03.142Z,9.33
2019-02-24T16:15:33.085Z,10.03
2019-02-24T16:18:02.747Z,9.63
2019-02-24T16:20:35.735Z,8.63
2019-02-24T16:23:06.457Z,9.67
2019-02-24T16:25:36.744Z,9.33
2019-02-24T16:28:06.451Z,9.30
2019-02-24T16:30:36.205Z,9.13
2019-02-24T16:33:10.619Z,9.37
2019-02-24T16:35:37.599Z,9.97
2019-02-24T16:38:07.309Z,9.57
2019-02-24T16:40:36.948Z,10.87
2019-02-24T16:43:06.733Z,11.87
2019-02-24T16:45:36.784Z,10.33
2019-02-24T16:48:06.575Z,11.63
2019-02-24T16:50:36.195Z,16.40
2019-02-24T16:53:05.947Z,16.87
2019-02-24T16:55:35.511Z,15.37
2019-02-24T16:58:05.518Z,16.23
2019-02-24T17:00:35.174Z,16.47
2019-02-24T17:03:04.809Z,15.37
2019-02-24T17:05:34.609Z,15.70
2019-02-24T17:08:04.651Z,11.07
2019-02-24T17:10:34.606Z,16.20
2019-02-24T17:13:04.648Z,19.47
2019-02-24T17:15:34.365Z,14.47
2019-02-24T17:18:04.100Z,15.03
2019-02-24T17:20:33.812Z,49.73
2019-02-24T17:23:04.018Z,25.03
2019-02-24T17:25:34.074Z,21.68
2019-02-24T17:28:03.890Z,16.53
2019-02-24T17:30:33.539Z,16.40
2019-02-24T17:33:03.534Z,15.83
2019-02-24T17:35:33.153Z,25.33
2019-02-24T17:38:03.013Z,15.23
2019-02-24T17:40:32.937Z,15.47
2019-02-24T17:43:04.514Z,19.77
2019-02-24T17:45:34.263Z,16.97
2019-02-24T17:48:04.786Z,15.77
2019-02-24T17:50:34.636Z,18.43
2019-02-24T17:53:04.659Z,20.13
2019-02-24T17:55:34.468Z,19.70
2019-02-24T17:58:05.166Z,19.07
2019-02-24T18:00:36.514Z,22.63
2019-02-24T18:03:06.252Z,22.57
2019-02-24T18:05:36.071Z,23.73
2019-02-24T18:08:06.031Z,20.90
2019-02-24T18:10:35.737Z,17.67
2019-02-24T18:13:05.530Z,17.17
2019-02-24T18:15:35.363Z,18.00
2019-02-24T18:18:05.170Z,17.30
2019-02-24T18:20:34.994Z,21.00
2019-02-24T18:23:04.692Z,19.80
2019-02-24T18:25:34.395Z,14.87
2019-02-24T18:28:04.147Z,16.87
2019-02-24T18:30:34.334Z,19.37
2019-02-24T18:33:04.145Z,17.03
2019-02-24T18:35:34.109Z,22.43
2019-02-24T18:38:03.905Z,19.60
2019-02-24T18:40:33.818Z,15.77
2019-02-24T18:43:03.552Z,19.65
2019-02-24T18:45:33.342Z,18.90
2019-02-24T18:48:03.303Z,16.53
2019-02-24T18:50:32.937Z,18.17
2019-02-24T18:53:02.864Z,17.33
2019-02-24T18:55:32.494Z,18.67
2019-02-24T18:58:02.537Z,18.27
2019-02-24T19:00:32.708Z,17.23
2019-02-24T19:03:02.549Z,14.63
2019-02-24T19:05:32.104Z,22.20
2019-02-24T19:08:02.128Z,17.80
2019-02-24T19:10:31.863Z,16.30
2019-02-24T19:13:01.626Z,15.37
2019-02-24T19:15:31.259Z,18.03
2019-02-24T19:18:01.141Z,20.47
2019-02-24T19:20:31.041Z,17.57
2019-02-24T19:23:00.779Z,18.83
2019-02-24T19:25:30.809Z,21.03
2019-02-24T19:28:00.488Z,21.93
2019-02-24T19:30:30.237Z,20.77
2019-02-24T19:33:00.022Z,19.60
2019-02-24T19:35:31.629Z,24.27
2019-02-24T19:38:01.772Z,20.63
2019-02-24T19:40:31.595Z,19.63
2019-02-24T19:43:01.386Z,17.87
2019-02-24T19:45:31.256Z,19.27
2019-02-24T19:48:00.872Z,18.57
2019-02-24T19:50:30.622Z,18.50
2019-02-24T19:53:03.507Z,17.23
2019-02-24T19:55:33.253Z,20.27
2019-02-24T19:58:03.003Z,16.73
2019-02-24T20:00:33.165Z,22.33
2019-02-24T20:03:02.693Z,18.67
2019-02-24T20:05:32.699Z,17.47
2019-02-24T20:08:02.290Z,18.87
2019-02-24T20:10:32.223Z,17.87
2019-02-24T20:13:02.253Z,15.93
2019-02-24T20:15:31.933Z,19.50
2019-02-24T20:18:01.640Z,63.07
2019-02-24T20:20:31.371Z,32.53
2019-02-24T20:23:01.272Z,20.07
2019-02-24T20:25:31.485Z,20.90
2019-02-24T20:28:01.359Z,22.97
2019-02-24T20:30:34.386Z,17.37
2019-02-24T20:33:04.241Z,20.57
2019-02-24T20:35:34.304Z,19.77
2019-02-24T20:38:04.109Z,22.83
2019-02-24T20:40:33.879Z,22.00
2019-02-24T20:43:05.557Z,22.43
2019-02-24T20:45:35.271Z,20.43
2019-02-24T20:48:05.990Z,27.20
2019-02-24T20:50:36.452Z,26.07
2019-02-24T20:53:06.371Z,21.90
2019-02-24T20:55:36.033Z,20.83
2019-02-24T20:58:06.052Z,20.03
2019-02-24T21:00:43.990Z,24.90
2019-02-24T21:03:13.969Z,23.03
2019-02-24T21:05:45.433Z,22.57
2019-02-24T21:08:15.870Z,24.43
2019-02-24T21:10:45.598Z,27.23
2019-02-24T21:13:16.859Z,25.03
2019-02-24T21:15:46.805Z,20.27
2019-02-24T21:18:16.740Z,22.17
2019-02-24T21:20:46.358Z,22.87
2019-02-24T21:23:16.140Z,30.93
2019-02-24T21:25:45.945Z,24.87
2019-02-24T21:28:16.065Z,22.90
2019-02-24T21:30:46.177Z,20.43
2019-02-24T21:33:15.984Z,20.07
2019-02-24T21:35:46.602Z,18.03
2019-02-24T21:38:16.805Z,18.70
2019-02-24T21:40:46.544Z,22.80
2019-02-24T21:43:16.367Z,17.60
2019-02-24T21:45:46.075Z,19.27
2019-02-24T21:48:15.920Z,18.80
2019-02-24T21:50:45.683Z,18.70
2019-02-24T21:53:15.315Z,21.50
2019-02-24T21:55:45.100Z,25.70
2019-02-24T21:58:14.895Z,19.33
2019-02-24T22:00:44.947Z,19.77
2019-02-24T22:03:14.514Z,22.37
2019-02-24T22:05:44.373Z,21.50
2019-02-24T22:08:14.191Z,19.40
2019-02-24T22:10:43.995Z,23.93
2019-02-24T22:13:13.666Z,20.53
2019-02-24T22:15:43.415Z,19.00
2019-02-24T22:18:13.081Z,21.03
2019-02-24T22:20:42.710Z,21.97
2019-02-24T22:23:12.397Z,20.97
2019-02-24T22:25:42.071Z,21.87
2019-02-24T22:28:11.805Z,21.43
2019-02-24T22:30:41.416Z,19.37
2019-02-24T22:33:11.296Z,25.90
2019-02-24T22:35:41.094Z,22.33
2019-02-24T22:38:11.015Z,24.27
2019-02-24T22:40:41.029Z,23.63
2019-02-24T22:43:10.753Z,21.57
2019-02-24T22:45:40.649Z,25.00
2019-02-24T22:48:10.407Z,25.57
2019-02-24T22:50:40.027Z,28.43
2019-02-24T22:53:09.827Z,28.23
2019-02-24T22:55:39.461Z,30.37
2019-02-24T22:58:09.354Z,26.23
2019-02-24T23:00:51.984Z,27.13
2019-02-24T23:03:24.223Z,30.50
2019-02-24T23:05:53.868Z,27.03
2019-02-24T23:08:24.411Z,28.57
2019-02-24T23:10:54.099Z,29.97
2019-02-24T23:13:23.801Z,30.67
2019-02-24T23:15:53.466Z,27.13
2019-02-24T23:18:23.095Z,28.17
2019-02-24T23:20:52.715Z,26.20
2019-02-24T23:23:22.461Z,26.50
2019-02-24T23:25:52.413Z,23.93
2019-02-24T23:28:22.442Z,29.03
2019-02-24T23:30:52.169Z,23.53
2019-02-24T23:33:21.818Z,25.70
2019-02-24T23:35:51.480Z,29.03
2019-02-24T23:38:21.270Z,25.17
2019-02-24T23:40:50.928Z,22.13
2019-02-24T23:43:20.661Z,22.83
2019-02-24T23:45:50.318Z,22.60
2019-02-24T23:48:20.039Z,24.20
2019-02-24T23:50:49.723Z,25.27
2019-02-24T23:53:19.509Z,23.90
2019-02-24T23:55:49.174Z,22.80
2019-02-24T23:58:18.919Z,21.30
